createdAt,value
2017-09-02T00:01:24.200Z,7.60
2017-09-02T00:03:52.494Z,8.70
2017-09-02T00:06:20.810Z,6.70
2017-09-02T00:08:49.120Z,6.70
2017-09-02T00:11:17.443Z,7.50
2017-09-02T00:13:45.765Z,8.80
2017-09-02T00:16:14.087Z,8.27
2017-09-02T00:18:42.389Z,7.27
2017-09-02T00:21:10.717Z,7.63
2017-09-02T00:23:39.014Z,7.90
2017-09-02T00:26:07.338Z,7.47
2017-09-02T00:28:35.653Z,6.87
2017-09-02T00:31:03.944Z,7.10
2017-09-02T00:33:32.252Z,6.80
2017-09-02T00:36:00.556Z,7.87
2017-09-02T00:38:28.890Z,7.37
2017-09-02T00:40:57.201Z,6.90
2017-09-02T00:43:25.545Z,7.30
2017-09-02T00:45:53.875Z,7.47
2017-09-02T00:48:22.197Z,7.87
2017-09-02T00:50:50.504Z,6.90
2017-09-02T00:53:18.828Z,8.27
2017-09-02T00:55:47.184Z,9.07
2017-09-02T00:58:15.512Z,9.77
2017-09-02T01:00:43.850Z,9.33
2017-09-02T01:03:12.187Z,9.57
2017-09-02T01:05:40.505Z,8.57
2017-09-02T01:08:08.816Z,7.97
2017-09-02T01:10:37.116Z,8.30
2017-09-02T01:13:05.437Z,7.43
2017-09-02T01:15:33.747Z,7.70
2017-09-02T01:18:02.054Z,9.50
2017-09-02T01:20:30.361Z,8.70
2017-09-02T01:22:58.676Z,9.43
2017-09-02T01:25:26.984Z,8.50
2017-09-02T01:27:55.332Z,8.43
2017-09-02T01:30:29.117Z,9.70
2017-09-02T01:32:57.442Z,8.33
2017-09-02T01:35:25.762Z,9.70
2017-09-02T01:37:54.080Z,8.93
2017-09-02T01:40:22.410Z,8.30
2017-09-02T01:42:50.788Z,9.60
2017-09-02T01:45:19.099Z,8.77
2017-09-02T01:47:47.410Z,9.90
2017-09-02T01:50:15.704Z,8.97
2017-09-02T01:52:43.996Z,8.40
2017-09-02T01:55:12.314Z,9.20
2017-09-02T01:57:40.621Z,9.30
2017-09-02T02:00:08.945Z,8.17
2017-09-02T02:02:37.240Z,8.83
2017-09-02T02:05:05.563Z,8.57
2017-09-02T02:07:33.879Z,10.70
2017-09-02T02:10:02.197Z,9.27
2017-09-02T02:12:30.500Z,8.97
2017-09-02T02:14:58.862Z,9.67
2017-09-02T02:17:27.164Z,10.03
2017-09-02T02:19:55.766Z,11.90
2017-09-02T02:22:24.069Z,11.47
2017-09-02T02:24:52.386Z,11.50
2017-09-02T02:27:20.718Z,11.33
2017-09-02T02:29:49.056Z,10.70
2017-09-02T02:32:17.353Z,10.43
2017-09-02T02:34:45.669Z,11.77
2017-09-02T02:37:13.989Z,12.20
2017-09-02T02:39:42.318Z,11.07
2017-09-02T02:42:10.629Z,9.90
2017-09-02T02:44:38.958Z,12.50
2017-09-02T02:47:07.282Z,12.10
2017-09-02T02:49:35.606Z,11.17
2017-09-02T02:52:03.925Z,10.70
2017-09-02T02:54:32.266Z,11.83
2017-09-02T02:57:00.594Z,11.93
2017-09-02T02:59:28.904Z,13.00
2017-09-02T03:01:57.224Z,11.77
2017-09-02T03:04:25.529Z,12.23
2017-09-02T03:06:53.853Z,13.37
2017-09-02T03:09:22.161Z,14.83
2017-09-02T03:11:50.469Z,14.53
2017-09-02T03:14:18.797Z,13.57
2017-09-02T03:16:47.097Z,13.70
2017-09-02T03:19:15.432Z,12.50
2017-09-02T03:21:43.748Z,14.37
2017-09-02T03:24:12.086Z,16.10
2017-09-02T03:26:40.392Z,14.27
2017-09-02T03:29:08.743Z,13.53
2017-09-02T03:31:37.052Z,12.77
2017-09-02T03:34:05.381Z,13.17
2017-09-02T03:36:33.685Z,11.47
2017-09-02T03:39:02.018Z,12.80
2017-09-02T03:41:30.353Z,14.10
2017-09-02T03:43:58.689Z,14.17
2017-09-02T03:46:26.998Z,11.23
2017-09-02T03:48:55.313Z,13.60
2017-09-02T03:51:23.633Z,13.43
2017-09-02T03:53:51.937Z,13.27
2017-09-02T03:56:20.261Z,12.53
2017-09-02T03:58:48.570Z,11.70
2017-09-02T04:01:16.885Z,13.43
2017-09-02T04:03:45.189Z,12.30
2017-09-02T04:06:13.501Z,13.13
2017-09-02T04:08:41.805Z,15.00
2017-09-02T04:11:10.148Z,14.37
2017-09-02T04:13:38.461Z,13.90
2017-09-02T04:16:06.788Z,14.83
2017-09-02T04:18:35.096Z,13.30
2017-09-02T04:21:03.410Z,15.23
2017-09-02T04:23:31.720Z,10.73
2017-09-02T04:26:00.043Z,14.97
2017-09-02T04:28:28.345Z,14.10
2017-09-02T04:30:56.663Z,13.87
2017-09-02T04:33:24.980Z,14.37
2017-09-02T04:35:53.284Z,15.90
2017-09-02T04:38:21.593Z,16.47
2017-09-02T04:40:49.913Z,13.67
2017-09-02T04:43:18.248Z,16.10
2017-09-02T04:45:46.556Z,15.17
2017-09-02T04:48:14.877Z,14.07
2017-09-02T04:50:43.201Z,14.47
2017-09-02T04:53:11.524Z,14.13
2017-09-02T04:55:39.832Z,14.00
2017-09-02T04:58:08.164Z,13.73
2017-09-02T05:00:36.486Z,12.73
2017-09-02T05:03:04.803Z,13.27
2017-09-02T05:05:33.882Z,13.50
2017-09-02T05:08:02.217Z,12.90
2017-09-02T05:10:30.534Z,13.10
2017-09-02T05:12:58.868Z,11.10
2017-09-02T05:15:27.191Z,10.67
2017-09-02T05:17:55.501Z,11.87
2017-09-02T05:20:23.837Z,11.37
2017-09-02T05:22:52.137Z,10.63
2017-09-02T05:25:20.457Z,10.40
2017-09-02T05:27:48.770Z,13.93
2017-09-02T05:30:17.096Z,11.30
2017-09-02T05:32:45.406Z,11.00
2017-09-02T05:35:13.723Z,10.40
2017-09-02T05:37:42.029Z,13.57
2017-09-02T05:40:10.345Z,11.10
2017-09-02T05:42:38.645Z,10.60
2017-09-02T05:45:06.956Z,10.73
2017-09-02T05:47:35.266Z,9.90
2017-09-02T05:50:03.587Z,10.70
2017-09-02T05:52:31.902Z,9.87
2017-09-02T05:55:00.225Z,10.37
2017-09-02T05:57:28.545Z,11.00
2017-09-02T05:59:56.874Z,9.87
2017-09-02T06:02:25.201Z,9.67
2017-09-02T06:04:53.521Z,11.13
2017-09-02T06:07:21.833Z,11.10
2017-09-02T06:09:50.149Z,11.00
2017-09-02T06:12:18.487Z,10.60
2017-09-02T06:14:46.807Z,10.47
2017-09-02T06:17:15.127Z,9.90
2017-09-02T06:19:43.437Z,10.57
2017-09-02T06:22:11.754Z,9.70
2017-09-02T06:24:40.062Z,8.47
2017-09-02T06:27:08.431Z,9.40
2017-09-02T06:29:36.752Z,9.10
2017-09-02T06:32:05.083Z,10.17
2017-09-02T06:34:33.409Z,10.70
2017-09-02T06:37:01.708Z,9.83
2017-09-02T06:39:30.729Z,10.73
2017-09-02T06:41:59.033Z,11.50
2017-09-02T06:44:27.354Z,10.40
2017-09-02T06:46:55.653Z,11.10
2017-09-02T06:49:23.977Z,10.20
2017-09-02T06:51:52.289Z,10.37
2017-09-02T06:54:20.638Z,11.50
2017-09-02T06:56:48.950Z,8.53
2017-09-02T06:59:17.253Z,8.73
2017-09-02T07:01:45.562Z,9.57
2017-09-02T07:04:13.899Z,9.97
2017-09-02T07:06:42.201Z,9.00
2017-09-02T07:09:10.505Z,8.90
2017-09-02T07:11:38.830Z,9.33
2017-09-02T07:14:07.134Z,8.03
2017-09-02T07:16:35.455Z,8.80
2017-09-02T07:19:03.758Z,7.83
2017-09-02T07:21:32.069Z,7.97
2017-09-02T07:24:00.419Z,7.43
2017-09-02T07:26:28.734Z,7.73
2017-09-02T07:28:57.047Z,8.33
2017-09-02T07:31:25.365Z,8.30
2017-09-02T07:33:53.670Z,8.40
2017-09-02T07:36:21.989Z,7.17
2017-09-02T07:38:50.284Z,8.10
2017-09-02T07:41:18.597Z,7.50
2017-09-02T07:43:46.894Z,8.03
2017-09-02T07:46:15.205Z,7.87
2017-09-02T07:48:43.498Z,6.97
2017-09-02T07:51:11.804Z,6.97
2017-09-02T07:53:40.143Z,6.50
2017-09-02T07:56:08.450Z,6.53
2017-09-02T07:58:36.776Z,6.90
2017-09-02T08:01:05.082Z,8.00
2017-09-02T08:03:33.477Z,6.10
2017-09-02T08:06:01.764Z,6.77
2017-09-02T08:08:30.079Z,6.30
2017-09-02T08:10:58.385Z,5.33
2017-09-02T08:13:26.690Z,5.90
2017-09-02T08:15:54.991Z,5.30
2017-09-02T08:18:23.341Z,5.33
2017-09-02T08:20:51.637Z,4.53
2017-09-02T08:23:19.953Z,4.67
2017-09-02T08:25:48.262Z,5.43
2017-09-02T08:28:16.862Z,4.80
2017-09-02T08:30:45.168Z,4.30
2017-09-02T08:33:13.466Z,3.90
2017-09-02T08:35:41.772Z,5.60
2017-09-02T08:38:10.087Z,5.47
2017-09-02T08:40:38.400Z,5.70
2017-09-02T08:43:06.701Z,4.80
2017-09-02T08:45:35.016Z,6.00
2017-09-02T08:48:03.314Z,4.97
2017-09-02T08:50:31.670Z,5.80
2017-09-02T08:52:59.969Z,5.13
2017-09-02T08:55:28.290Z,3.90
2017-09-02T08:57:56.605Z,5.00
2017-09-02T09:00:24.905Z,4.80
2017-09-02T09:02:53.213Z,4.10
2017-09-02T09:05:21.546Z,3.37
2017-09-02T09:07:49.849Z,4.00
2017-09-02T09:10:18.149Z,3.80
2017-09-02T09:12:46.457Z,4.70
2017-09-02T09:15:14.757Z,4.10
2017-09-02T09:17:43.080Z,4.57
2017-09-02T09:20:11.373Z,4.50
2017-09-02T09:22:39.717Z,4.53
2017-09-02T09:25:08.021Z,3.53
2017-09-02T09:27:36.336Z,4.20
2017-09-02T09:30:04.629Z,4.27
2017-09-02T09:32:32.953Z,4.80
2017-09-02T09:35:01.250Z,4.03
2017-09-02T09:37:29.557Z,4.27
2017-09-02T09:39:57.857Z,4.40
2017-09-02T09:42:26.161Z,3.83
2017-09-02T09:44:54.453Z,4.40
2017-09-02T09:47:22.790Z,4.70
2017-09-02T09:49:51.089Z,3.90
2017-09-02T09:52:20.430Z,4.30
2017-09-02T09:54:48.739Z,5.17
2017-09-02T09:57:17.046Z,4.80
2017-09-02T09:59:45.357Z,4.30
2017-09-02T10:02:13.657Z,4.30
2017-09-02T10:04:41.962Z,3.87
2017-09-02T10:07:10.269Z,4.53
2017-09-02T10:09:38.577Z,5.10
2017-09-02T10:12:06.881Z,5.07
2017-09-02T10:14:35.189Z,4.77
2017-09-02T10:17:03.485Z,4.73
2017-09-02T10:19:31.802Z,4.00
2017-09-02T10:22:00.100Z,4.43
2017-09-02T10:24:28.433Z,3.80
2017-09-02T10:26:56.720Z,3.00
2017-09-02T10:29:25.017Z,3.30
2017-09-02T10:31:53.337Z,3.40
2017-09-02T10:34:21.645Z,3.63
2017-09-02T10:36:50.112Z,3.33
2017-09-02T10:39:18.413Z,3.50
2017-09-02T10:41:46.716Z,3.70
2017-09-02T10:44:15.017Z,2.90
2017-09-02T10:46:43.333Z,3.70
2017-09-02T10:49:11.633Z,3.60
2017-09-02T10:51:39.938Z,3.80
2017-09-02T10:54:08.248Z,2.70
2017-09-02T10:56:36.554Z,2.50
2017-09-02T10:59:05.661Z,3.63
2017-09-02T11:01:33.969Z,1.97
2017-09-02T11:04:02.277Z,1.90
2017-09-02T11:06:30.607Z,1.93
2017-09-02T11:08:58.910Z,2.00
2017-09-02T11:11:27.209Z,1.50
2017-09-02T11:13:55.517Z,2.00
2017-09-02T11:16:23.830Z,2.30
2017-09-02T11:18:52.137Z,3.00
2017-09-02T11:21:20.450Z,3.00
2017-09-02T11:23:48.749Z,2.20
2017-09-02T11:26:17.053Z,2.50
2017-09-02T11:28:45.356Z,1.87
2017-09-02T11:31:13.673Z,3.03
2017-09-02T11:33:41.996Z,2.60
2017-09-02T11:36:10.302Z,2.90
2017-09-02T11:38:38.618Z,2.90
2017-09-02T11:41:06.918Z,2.17
2017-09-02T11:43:35.241Z,2.83
2017-09-02T11:46:03.538Z,2.20
2017-09-02T11:48:31.872Z,2.40
2017-09-02T11:51:00.957Z,2.00
2017-09-02T11:53:29.253Z,2.80
2017-09-02T11:55:57.561Z,2.27
2017-09-02T11:58:25.865Z,2.03
2017-09-02T12:00:54.172Z,2.40
2017-09-02T12:03:22.789Z,2.63
2017-09-02T12:05:51.100Z,2.10
2017-09-02T12:08:19.397Z,2.60
2017-09-02T12:10:47.705Z,2.20
2017-09-02T12:13:16.001Z,2.17
2017-09-02T12:15:44.309Z,2.13
2017-09-02T12:18:12.601Z,2.00
2017-09-02T12:20:40.910Z,1.90
2017-09-02T12:23:09.211Z,2.10
2017-09-02T12:25:37.611Z,1.50
2017-09-02T12:28:05.909Z,1.70
2017-09-02T12:30:34.229Z,2.03
2017-09-02T12:33:02.538Z,1.47
2017-09-02T12:35:30.839Z,1.73
2017-09-02T12:37:59.150Z,1.70
2017-09-02T12:40:27.457Z,1.97
2017-09-02T12:42:55.762Z,1.90
2017-09-02T12:45:24.066Z,1.73
2017-09-02T12:47:52.375Z,1.80
2017-09-02T12:50:20.681Z,1.80
2017-09-02T12:52:48.997Z,1.80
2017-09-02T12:55:17.296Z,2.40
2017-09-02T12:57:45.629Z,1.60
2017-09-02T13:00:13.943Z,1.70
2017-09-02T13:02:42.249Z,1.73
2017-09-02T13:05:10.576Z,1.67
2017-09-02T13:07:38.865Z,2.80
2017-09-02T13:10:07.179Z,1.73
2017-09-02T13:12:35.477Z,1.80
2017-09-02T13:15:03.785Z,2.30
2017-09-02T13:17:32.074Z,1.93
2017-09-02T13:20:00.377Z,1.70
2017-09-02T13:22:28.681Z,2.10
2017-09-02T13:24:57.178Z,1.90
2017-09-02T13:27:25.478Z,2.00
2017-09-02T13:29:53.781Z,1.53
2017-09-02T13:32:22.113Z,1.60
2017-09-02T13:34:50.426Z,1.70
2017-09-02T13:37:18.729Z,1.70
2017-09-02T13:39:47.041Z,6.03
2017-09-02T13:42:15.333Z,2.80
2017-09-02T13:44:43.703Z,2.43
2017-09-02T13:47:11.992Z,2.37
2017-09-02T13:49:40.302Z,2.20
2017-09-02T13:52:08.613Z,2.00
2017-09-02T13:54:36.914Z,2.10
2017-09-02T13:57:05.227Z,2.30
2017-09-02T13:59:33.533Z,1.90
2017-09-02T14:02:01.837Z,1.30
2017-09-02T14:04:30.136Z,1.50
2017-09-02T14:06:58.477Z,1.90
2017-09-02T14:09:26.773Z,1.50
2017-09-02T14:11:55.069Z,1.60
2017-09-02T14:14:23.377Z,1.57
2017-09-02T14:16:51.676Z,1.90
2017-09-02T14:19:19.988Z,1.50
2017-09-02T14:21:48.277Z,1.73
2017-09-02T14:24:16.588Z,1.60
2017-09-02T14:26:44.903Z,1.50
2017-09-02T14:29:13.206Z,1.43
2017-09-02T14:31:41.536Z,1.50
2017-09-02T14:34:09.872Z,1.40
2017-09-02T14:36:38.174Z,1.70
2017-09-02T14:39:06.483Z,2.00
2017-09-02T14:41:34.786Z,1.33
2017-09-02T14:44:03.103Z,1.63
2017-09-02T14:46:31.429Z,1.63
2017-09-02T14:48:59.724Z,1.77
2017-09-02T14:51:28.044Z,1.63
2017-09-02T14:53:56.349Z,1.70
2017-09-02T14:56:24.663Z,1.73
2017-09-02T14:58:52.997Z,1.80
2017-09-02T15:01:21.306Z,2.07
2017-09-02T15:03:49.625Z,1.77
2017-09-02T15:06:17.949Z,1.87
2017-09-02T15:08:46.256Z,1.50
2017-09-02T15:11:14.582Z,2.40
2017-09-02T15:13:42.886Z,1.80
2017-09-02T15:16:11.203Z,1.77
2017-09-02T15:18:39.521Z,1.60
2017-09-02T15:21:07.821Z,1.83
2017-09-02T15:23:36.108Z,1.80
2017-09-02T15:26:04.416Z,1.50
2017-09-02T15:28:32.719Z,1.60
2017-09-02T15:31:01.033Z,1.80
2017-09-02T15:33:29.329Z,1.80
2017-09-02T15:35:57.633Z,1.43
2017-09-02T15:38:25.933Z,2.07
2017-09-02T15:40:54.269Z,1.77
2017-09-02T15:43:22.579Z,2.37
2017-09-02T15:45:50.890Z,2.70
2017-09-02T15:48:19.206Z,2.20
2017-09-02T15:50:47.578Z,2.63
2017-09-02T15:53:15.900Z,2.70
2017-09-02T15:55:44.231Z,2.70
2017-09-02T15:58:12.561Z,2.93
2017-09-02T16:00:41.690Z,3.00
2017-09-02T16:03:10.026Z,3.70
2017-09-02T16:05:38.353Z,3.93
2017-09-02T16:08:06.678Z,3.50
2017-09-02T16:10:34.990Z,2.97
2017-09-02T16:13:03.315Z,2.70
2017-09-02T16:15:31.628Z,3.00
2017-09-02T16:17:59.920Z,2.90
2017-09-02T16:20:28.258Z,3.10
2017-09-02T16:22:56.572Z,3.13
2017-09-02T16:25:24.926Z,3.67
2017-09-02T16:27:53.221Z,2.27
2017-09-02T16:30:21.537Z,4.60
2017-09-02T16:32:49.851Z,2.20
2017-09-02T16:35:18.176Z,3.43
2017-09-02T16:37:46.481Z,2.50
2017-09-02T16:40:14.785Z,3.30
2017-09-02T16:42:43.091Z,3.10
2017-09-02T16:45:11.410Z,2.97
2017-09-02T16:47:39.718Z,3.57
2017-09-02T16:50:08.042Z,3.50
2017-09-02T16:52:36.355Z,3.20
2017-09-02T16:55:04.649Z,3.97
2017-09-02T16:57:32.949Z,3.50
2017-09-02T17:00:01.254Z,3.53
2017-09-02T17:02:29.582Z,3.90
2017-09-02T17:04:57.880Z,3.50
2017-09-02T17:07:26.186Z,3.37
2017-09-02T17:09:54.496Z,3.30
2017-09-02T17:12:22.819Z,3.13
2017-09-02T17:14:51.171Z,3.40
2017-09-02T17:17:19.597Z,4.47
2017-09-02T17:19:47.954Z,4.10
2017-09-02T17:22:16.364Z,2.63
2017-09-02T17:24:44.883Z,2.93
2017-09-02T17:27:13.314Z,2.60
2017-09-02T17:29:41.679Z,2.70
2017-09-02T17:32:10.079Z,2.97
2017-09-02T17:34:38.397Z,3.57
2017-09-02T17:37:06.729Z,3.40
2017-09-02T17:39:35.081Z,3.20
2017-09-02T17:42:03.508Z,3.10
2017-09-02T17:44:31.903Z,3.00
2017-09-02T17:47:00.230Z,2.23
2017-09-02T17:49:28.549Z,2.57
2017-09-02T17:51:56.889Z,2.70
2017-09-02T17:54:25.205Z,4.33
2017-09-02T17:56:53.513Z,3.60
2017-09-02T17:59:21.821Z,3.27
2017-09-02T18:01:50.151Z,3.47
2017-09-02T18:04:18.476Z,3.93
2017-09-02T18:06:46.769Z,3.63
2017-09-02T18:09:15.077Z,2.80
2017-09-02T18:11:43.377Z,3.27
2017-09-02T18:14:11.697Z,4.00
2017-09-02T18:16:39.998Z,3.70
2017-09-02T18:19:08.318Z,5.13
2017-09-02T18:21:36.629Z,3.53
2017-09-02T18:24:04.958Z,3.83
2017-09-02T18:26:33.268Z,3.50
2017-09-02T18:29:01.569Z,2.90
2017-09-02T18:31:30.719Z,2.87
2017-09-02T18:33:59.071Z,2.70
2017-09-02T18:36:27.387Z,3.70
2017-09-02T18:38:55.705Z,4.23
2017-09-02T18:41:24.021Z,5.47
2017-09-02T18:43:52.690Z,4.60
2017-09-02T18:46:21.018Z,5.60
2017-09-02T18:48:49.335Z,5.67
2017-09-02T18:51:17.661Z,5.20
2017-09-02T18:53:45.981Z,3.70
2017-09-02T18:56:14.363Z,4.83
2017-09-02T18:58:42.731Z,5.10
2017-09-02T19:01:11.083Z,5.57
2017-09-02T19:03:39.405Z,7.73
2017-09-02T19:06:07.709Z,8.30
2017-09-02T19:08:36.040Z,4.90
2017-09-02T19:11:04.343Z,4.70
2017-09-02T19:13:32.661Z,5.20
2017-09-02T19:16:01.175Z,4.60
2017-09-02T19:18:29.519Z,4.73
2017-09-02T19:20:57.850Z,4.23
2017-09-02T19:23:26.173Z,4.30
2017-09-02T19:25:54.484Z,4.53
2017-09-02T19:28:22.797Z,4.17
2017-09-02T19:30:51.106Z,3.50
2017-09-02T19:33:19.399Z,5.17
2017-09-02T19:35:48.310Z,4.90
2017-09-02T19:38:17.114Z,4.60
2017-09-02T19:40:45.444Z,5.20
2017-09-02T19:43:13.757Z,5.70
2017-09-02T19:45:42.138Z,4.90
2017-09-02T19:48:10.464Z,5.80
2017-09-02T19:50:38.817Z,5.67
2017-09-02T19:53:07.129Z,5.07
2017-09-02T19:55:35.443Z,5.50
2017-09-02T19:58:03.766Z,5.03
2017-09-02T20:00:32.106Z,5.40
2017-09-02T20:03:00.418Z,5.43
2017-09-02T20:05:28.717Z,6.00
2017-09-02T20:07:57.354Z,5.33
2017-09-02T20:10:25.669Z,5.27
2017-09-02T20:12:53.986Z,6.30
2017-09-02T20:15:22.299Z,6.93
2017-09-02T20:17:50.635Z,6.37
2017-09-02T20:20:18.952Z,6.27
2017-09-02T20:22:47.267Z,5.73
2017-09-02T20:25:15.585Z,5.33
2017-09-02T20:27:43.897Z,6.27
2017-09-02T20:30:12.204Z,5.23
2017-09-02T20:32:40.529Z,6.70
2017-09-02T20:35:08.825Z,5.40
2017-09-02T20:37:37.149Z,5.87
2017-09-02T20:40:05.457Z,5.63
2017-09-02T20:42:33.769Z,5.13
2017-09-02T20:45:02.080Z,4.57
2017-09-02T20:47:30.397Z,4.10
2017-09-02T20:49:58.718Z,4.20
2017-09-02T20:52:27.026Z,4.50
2017-09-02T20:54:55.337Z,3.57
2017-09-02T20:57:23.634Z,4.13
2017-09-02T20:59:51.957Z,4.77
2017-09-02T21:02:20.294Z,5.03
2017-09-02T21:04:48.635Z,4.37
2017-09-02T21:07:16.937Z,4.30
2017-09-02T21:09:45.252Z,4.47
2017-09-02T21:12:13.573Z,3.83
2017-09-02T21:14:41.883Z,3.80
2017-09-02T21:17:10.193Z,4.30
2017-09-02T21:19:38.513Z,4.10
2017-09-02T21:24:41.537Z,3.77
2017-09-02T21:27:09.853Z,4.33
2017-09-02T21:29:38.145Z,3.90
2017-09-02T21:32:06.461Z,3.90
2017-09-02T21:34:34.769Z,5.40
2017-09-02T21:37:03.094Z,4.33
2017-09-02T21:39:31.425Z,4.57
2017-09-02T21:41:59.741Z,4.07
2017-09-02T21:44:28.061Z,4.00
2017-09-02T21:46:56.696Z,4.17
2017-09-02T21:49:25.002Z,3.73
2017-09-02T21:51:53.318Z,5.30
2017-09-02T21:54:21.622Z,3.80
2017-09-02T21:56:50.308Z,5.00
2017-09-02T21:59:18.610Z,5.80
2017-09-02T22:01:46.941Z,5.47
2017-09-02T22:04:15.263Z,4.33
2017-09-02T22:06:43.569Z,5.27
2017-09-02T22:09:11.876Z,5.07
2017-09-02T22:11:40.205Z,4.43
2017-09-02T22:14:09.073Z,4.40
2017-09-02T22:16:37.375Z,5.13
2017-09-02T22:19:05.689Z,5.03
2017-09-02T22:21:33.998Z,4.70
2017-09-02T22:24:02.439Z,5.27
2017-09-02T22:26:30.749Z,4.40
2017-09-02T22:28:59.081Z,5.10
2017-09-02T22:31:27.377Z,5.17
2017-09-02T22:33:55.694Z,4.30
2017-09-02T22:36:23.998Z,6.07
2017-09-02T22:38:52.355Z,5.00
2017-09-02T22:41:20.679Z,4.33
2017-09-02T22:43:49.022Z,5.27
2017-09-02T22:46:17.331Z,5.37
2017-09-02T22:48:45.658Z,5.63
2017-09-02T22:51:13.951Z,4.60
2017-09-02T22:53:42.282Z,4.70
2017-09-02T22:56:10.596Z,4.70
2017-09-02T22:58:38.916Z,4.23
2017-09-02T23:01:07.212Z,4.63
2017-09-02T23:03:35.536Z,4.30
2017-09-02T23:06:03.845Z,4.60
2017-09-02T23:08:32.137Z,4.97
2017-09-02T23:11:00.510Z,4.57
2017-09-02T23:13:28.817Z,4.60
2017-09-02T23:15:57.129Z,4.50
2017-09-02T23:18:25.438Z,5.20
2017-09-02T23:20:53.746Z,4.47
2017-09-02T23:23:22.045Z,5.27
2017-09-02T23:25:50.361Z,5.50
2017-09-02T23:28:18.677Z,4.87
2017-09-02T23:30:47.014Z,5.40
2017-09-02T23:33:15.316Z,4.60
2017-09-02T23:35:43.625Z,5.47
2017-09-02T23:38:11.955Z,4.57
2017-09-02T23:40:40.262Z,5.47
2017-09-02T23:43:08.565Z,5.30
2017-09-02T23:45:36.890Z,5.80
2017-09-02T23:48:05.200Z,6.03
2017-09-02T23:50:33.520Z,5.23
2017-09-02T23:53:01.829Z,5.60
2017-09-02T23:55:30.182Z,6.20
2017-09-02T23:57:58.518Z,5.20
